createdAt,value
2019-01-24T00:04:43.503Z,23.10
2019-01-24T00:07:12.701Z,23.10
2019-01-24T00:09:41.880Z,23.80
2019-01-24T00:12:11.084Z,22.53
2019-01-24T00:14:40.261Z,22.27
2019-01-24T00:17:09.458Z,25.00
2019-01-24T00:19:38.630Z,22.83
2019-01-24T00:22:07.837Z,21.43
2019-01-24T00:24:37.013Z,22.53
2019-01-24T00:27:06.222Z,22.60
2019-01-24T00:29:35.402Z,22.00
2019-01-24T00:32:04.609Z,21.90
2019-01-24T00:34:34.131Z,22.43
2019-01-24T00:37:03.316Z,22.40
2019-01-24T00:39:32.520Z,19.00
2019-01-24T00:42:01.694Z,21.10
2019-01-24T00:44:30.898Z,21.27
2019-01-24T00:47:00.080Z,20.60
2019-01-24T00:49:29.623Z,22.13
2019-01-24T00:51:58.800Z,21.67
2019-01-24T00:54:28.004Z,22.73
2019-01-24T00:56:57.181Z,24.17
2019-01-24T00:59:26.390Z,23.47
2019-01-24T01:01:55.576Z,23.10
2019-01-24T01:04:29.676Z,22.90
2019-01-24T01:06:55.697Z,22.23
2019-01-24T01:09:24.909Z,22.70
2019-01-24T01:11:54.109Z,23.33
2019-01-24T01:14:23.295Z,23.83
2019-01-24T01:16:52.492Z,20.90
2019-01-24T01:19:21.673Z,20.53
2019-01-24T01:21:50.889Z,19.97
2019-01-24T01:24:20.436Z,19.80
2019-01-24T01:26:49.613Z,20.23
2019-01-24T01:29:18.816Z,20.50
2019-01-24T01:31:48.001Z,20.27
2019-01-24T01:34:17.174Z,19.80
2019-01-24T01:36:46.384Z,21.57
2019-01-24T01:39:15.562Z,18.53
2019-01-24T01:41:45.024Z,20.43
2019-01-24T01:44:14.235Z,20.60
2019-01-24T01:46:43.732Z,21.10
2019-01-24T01:49:12.914Z,20.43
2019-01-24T01:51:42.129Z,19.43
2019-01-24T01:54:11.307Z,20.57
2019-01-24T01:56:40.504Z,19.63
2019-01-24T01:59:09.736Z,19.83
2019-01-24T02:01:38.900Z,19.63
2019-01-24T02:04:08.075Z,22.17
2019-01-24T02:06:37.283Z,21.07
2019-01-24T02:09:48.183Z,20.27
2019-01-24T02:12:17.391Z,20.00
2019-01-24T02:14:46.570Z,21.80
2019-01-24T02:17:16.084Z,21.50
2019-01-24T02:19:45.287Z,20.40
2019-01-24T02:22:14.473Z,21.33
2019-01-24T02:24:43.650Z,20.00
2019-01-24T02:27:12.864Z,20.97
2019-01-24T02:29:42.037Z,20.67
2019-01-24T02:32:11.210Z,19.47
2019-01-24T02:34:40.777Z,19.33
2019-01-24T02:37:09.955Z,19.00
2019-01-24T02:39:39.177Z,20.37
2019-01-24T02:42:08.349Z,20.80
2019-01-24T02:44:37.551Z,19.60
2019-01-24T02:47:06.737Z,19.97
2019-01-24T02:49:35.922Z,17.73
2019-01-24T02:52:44.525Z,19.40
2019-01-24T02:55:53.700Z,19.80
2019-01-24T02:58:22.907Z,19.83
2019-01-24T03:00:52.102Z,20.10
2019-01-24T03:03:21.320Z,19.23
2019-01-24T03:05:50.502Z,18.07
2019-01-24T03:08:19.678Z,18.23
2019-01-24T03:10:48.882Z,19.63
2019-01-24T03:13:18.410Z,18.30
2019-01-24T03:15:47.627Z,18.40
2019-01-24T03:18:16.803Z,17.40
2019-01-24T03:20:45.980Z,18.43
2019-01-24T03:23:15.186Z,17.10
2019-01-24T03:25:44.360Z,17.07
2019-01-24T03:28:13.898Z,17.40
2019-01-24T03:30:50.449Z,17.27
2019-01-24T03:33:19.654Z,18.30
2019-01-24T03:38:57.398Z,17.30
2019-01-24T03:41:26.573Z,18.83
2019-01-24T03:43:56.082Z,18.23
2019-01-24T03:46:25.590Z,18.10
2019-01-24T03:48:54.778Z,17.30
2019-01-24T03:51:23.970Z,17.13
2019-01-24T03:53:53.492Z,17.93
2019-01-24T03:56:22.698Z,17.23
2019-01-24T03:58:51.877Z,17.73
2019-01-24T04:01:21.058Z,17.10
2019-01-24T04:06:45.815Z,18.10
2019-01-24T04:09:15.036Z,18.57
2019-01-24T04:11:44.207Z,17.07
2019-01-24T04:14:13.385Z,17.50
2019-01-24T04:16:42.588Z,17.93
2019-01-24T04:19:11.775Z,18.27
2019-01-24T04:24:16.628Z,18.17
2019-01-24T04:26:45.844Z,19.47
2019-01-24T04:29:15.021Z,19.43
2019-01-24T04:31:44.582Z,19.70
2019-01-24T04:34:13.774Z,19.83
2019-01-24T04:36:42.952Z,19.40
2019-01-24T04:39:12.531Z,19.87
2019-01-24T04:42:00.676Z,19.67
2019-01-24T04:44:48.816Z,18.60
2019-01-24T04:47:17.995Z,19.93
2019-01-24T04:49:47.169Z,19.93
2019-01-24T04:52:16.718Z,19.30
2019-01-24T04:54:45.900Z,20.10
2019-01-24T04:57:15.099Z,19.50
2019-01-24T04:59:44.273Z,19.47
2019-01-24T05:02:13.474Z,20.97
2019-01-24T05:04:42.654Z,17.90
2019-01-24T05:07:11.831Z,19.37
2019-01-24T05:09:41.406Z,19.73
2019-01-24T05:12:11.023Z,19.53
2019-01-24T05:14:40.235Z,20.30
2019-01-24T05:17:09.424Z,19.83
2019-01-24T05:19:38.619Z,19.27
2019-01-24T05:22:07.927Z,21.30
2019-01-24T05:24:37.128Z,19.73
2019-01-24T05:27:06.610Z,19.10
2019-01-24T05:29:35.784Z,20.20
2019-01-24T05:32:05.412Z,19.90
2019-01-24T05:34:34.590Z,19.77
2019-01-24T05:37:03.793Z,19.40
2019-01-24T05:39:32.993Z,19.93
2019-01-24T05:42:02.170Z,20.23
2019-01-24T05:44:31.369Z,19.20
2019-01-24T05:47:00.556Z,21.33
2019-01-24T05:49:29.756Z,20.07
2019-01-24T05:51:58.927Z,20.63
2019-01-24T05:54:47.065Z,19.37
2019-01-24T05:57:16.239Z,19.93
2019-01-24T05:59:45.416Z,19.33
2019-01-24T06:02:14.933Z,20.63
2019-01-24T06:04:44.118Z,20.73
2019-01-24T06:07:13.343Z,19.17
2019-01-24T06:09:42.537Z,19.73
2019-01-24T06:12:12.118Z,20.87
2019-01-24T06:14:41.604Z,20.27
2019-01-24T06:17:10.808Z,20.40
2019-01-24T06:19:40.021Z,21.03
2019-01-24T06:22:09.229Z,20.40
2019-01-24T06:24:38.399Z,20.73
2019-01-24T06:27:07.568Z,18.43
2019-01-24T06:29:36.765Z,20.00
2019-01-24T06:35:14.517Z,20.60
2019-01-24T06:37:43.793Z,21.50
2019-01-24T06:40:14.162Z,20.30
2019-01-24T06:42:43.665Z,21.87
2019-01-24T06:45:18.004Z,19.47
2019-01-24T06:47:47.496Z,21.97
2019-01-24T06:50:16.913Z,21.53
2019-01-24T06:53:05.023Z,22.13
2019-01-24T06:55:34.228Z,23.17
2019-01-24T06:58:03.406Z,20.93
2019-01-24T07:00:32.599Z,22.77
2019-01-24T07:03:01.779Z,21.20
2019-01-24T07:05:30.988Z,22.93
2019-01-24T07:08:00.163Z,20.80
2019-01-24T07:11:08.754Z,22.47
2019-01-24T07:13:37.932Z,22.80
2019-01-24T07:16:07.136Z,23.17
2019-01-24T07:18:36.637Z,21.67
2019-01-24T07:21:05.839Z,22.80
2019-01-24T07:23:35.023Z,22.70
2019-01-24T07:26:04.218Z,22.60
2019-01-24T07:28:33.405Z,23.00
2019-01-24T07:31:02.605Z,24.50
2019-01-24T07:33:31.780Z,22.50
2019-01-24T07:36:02.374Z,23.13
2019-01-24T07:38:32.678Z,22.27
2019-01-24T07:41:02.177Z,22.93
2019-01-24T07:43:31.358Z,22.67
2019-01-24T07:46:00.560Z,24.43
2019-01-24T07:48:29.737Z,22.37
2019-01-24T07:53:47.111Z,21.67
2019-01-24T07:56:16.287Z,22.70
2019-01-24T07:58:45.817Z,21.43
2019-01-24T08:01:14.994Z,23.23
2019-01-24T08:03:44.519Z,21.97
2019-01-24T08:06:13.698Z,23.10
2019-01-24T08:08:42.877Z,23.53
2019-01-24T08:11:12.424Z,24.60
2019-01-24T08:13:41.598Z,22.20
2019-01-24T08:18:46.186Z,23.83
2019-01-24T08:21:54.776Z,23.70
2019-01-24T08:24:23.951Z,23.30
2019-01-24T08:26:53.154Z,26.13
2019-01-24T08:29:22.333Z,22.63
2019-01-24T08:31:51.535Z,23.40
2019-01-24T08:34:20.709Z,23.77
2019-01-24T08:36:49.930Z,23.00
2019-01-24T08:39:19.113Z,23.07
2019-01-24T08:41:48.327Z,25.40
2019-01-24T08:44:17.864Z,23.87
2019-01-24T08:46:47.038Z,24.03
2019-01-24T08:49:16.236Z,22.73
2019-01-24T08:51:45.414Z,24.50
2019-01-24T08:54:14.614Z,24.70
2019-01-24T08:56:43.787Z,22.37
2019-01-24T08:59:13.003Z,21.70
2019-01-24T09:01:42.451Z,22.73
2019-01-24T09:04:11.651Z,22.63
2019-01-24T09:06:41.153Z,19.73
2019-01-24T09:09:10.703Z,22.97
2019-01-24T09:11:39.886Z,21.97
2019-01-24T09:14:09.088Z,23.77
2019-01-24T09:16:38.563Z,23.30
2019-01-24T09:19:07.843Z,23.67
2019-01-24T09:21:37.363Z,21.47
2019-01-24T09:24:06.542Z,20.40
2019-01-24T09:26:35.748Z,21.33
2019-01-24T09:29:04.928Z,24.17
2019-01-24T09:31:34.131Z,24.10
2019-01-24T09:34:03.658Z,20.80
2019-01-24T09:36:32.859Z,18.43
2019-01-24T09:39:02.030Z,21.10
2019-01-24T09:41:31.236Z,21.27
2019-01-24T09:44:00.755Z,18.17
2019-01-24T09:46:29.963Z,19.67
2019-01-24T09:48:59.140Z,19.00
2019-01-24T09:51:28.314Z,16.40
2019-01-24T09:53:57.525Z,18.13
2019-01-24T09:56:27.052Z,14.43
2019-01-24T09:58:56.250Z,14.90
2019-01-24T10:01:25.435Z,13.07
2019-01-24T10:03:54.636Z,16.20
2019-01-24T10:06:23.816Z,13.90
2019-01-24T10:08:53.015Z,13.23
2019-01-24T10:11:23.549Z,12.77
2019-01-24T10:13:53.389Z,14.33
2019-01-24T10:16:22.614Z,14.50
2019-01-24T10:18:51.823Z,15.67
2019-01-24T10:21:21.003Z,16.17
2019-01-24T10:23:50.182Z,15.43
2019-01-24T10:26:19.400Z,19.87
2019-01-24T10:28:48.588Z,22.10
2019-01-24T10:31:17.811Z,22.17
2019-01-24T10:33:47.011Z,21.53
2019-01-24T10:36:16.214Z,22.37
2019-01-24T10:38:45.765Z,20.90
2019-01-24T10:41:14.962Z,22.10
2019-01-24T10:43:44.152Z,18.17
2019-01-24T10:46:13.667Z,16.33
2019-01-24T10:51:31.314Z,17.33
2019-01-24T10:54:00.532Z,17.70
2019-01-24T10:56:29.735Z,19.83
2019-01-24T10:58:58.928Z,18.53
2019-01-24T11:01:28.128Z,17.90
2019-01-24T11:03:57.306Z,19.23
2019-01-24T11:06:26.487Z,20.27
2019-01-24T11:08:56.003Z,19.10
2019-01-24T11:11:25.174Z,19.50
2019-01-24T11:13:54.390Z,19.87
2019-01-24T11:16:23.585Z,18.33
2019-01-24T11:18:52.790Z,17.60
2019-01-24T11:21:21.978Z,16.87
2019-01-24T11:23:51.196Z,17.93
2019-01-24T11:26:20.366Z,17.13
2019-01-24T11:28:49.563Z,16.73
2019-01-24T11:31:18.786Z,16.47
2019-01-24T11:33:47.974Z,15.97
2019-01-24T11:36:17.181Z,18.30
2019-01-24T11:38:46.351Z,20.30
2019-01-24T11:41:15.551Z,15.70
2019-01-24T11:43:44.726Z,17.10
2019-01-24T11:46:13.921Z,17.27
2019-01-24T11:48:43.470Z,16.97
2019-01-24T11:51:12.810Z,16.10
2019-01-24T11:54:01.068Z,15.53
2019-01-24T11:56:30.284Z,17.87
2019-01-24T11:58:59.456Z,15.73
2019-01-24T12:01:28.636Z,16.37
2019-01-24T12:03:58.215Z,17.27
2019-01-24T12:06:27.717Z,17.30
2019-01-24T12:08:56.915Z,19.33
2019-01-24T12:11:26.734Z,20.03
2019-01-24T12:13:55.964Z,18.67
2019-01-24T12:16:25.110Z,19.57
2019-01-24T12:18:54.410Z,20.80
2019-01-24T12:21:23.591Z,20.90
2019-01-24T12:23:52.791Z,20.33
2019-01-24T12:26:22.019Z,19.90
2019-01-24T12:28:51.212Z,20.97
2019-01-24T12:31:20.429Z,19.20
2019-01-24T12:33:49.616Z,20.13
2019-01-24T12:36:19.504Z,18.67
2019-01-24T12:38:50.054Z,17.40
2019-01-24T12:41:19.254Z,16.47
2019-01-24T12:43:48.434Z,18.27
2019-01-24T12:46:18.020Z,17.30
2019-01-24T12:48:47.308Z,19.00
2019-01-24T12:51:16.735Z,18.03
2019-01-24T12:53:45.919Z,18.27
2019-01-24T12:56:15.461Z,18.50
2019-01-24T12:58:44.647Z,18.17
2019-01-24T13:01:13.855Z,17.63
2019-01-24T13:03:43.404Z,16.60
2019-01-24T13:06:12.970Z,17.47
2019-01-24T13:08:42.267Z,17.47
2019-01-24T13:11:11.438Z,16.67
2019-01-24T13:13:40.759Z,17.83
2019-01-24T13:16:09.935Z,19.10
2019-01-24T13:18:39.126Z,18.97
2019-01-24T13:21:08.299Z,18.10
2019-01-24T13:23:37.898Z,18.17
2019-01-24T13:26:07.371Z,19.03
2019-01-24T13:28:36.570Z,19.43
2019-01-24T13:31:05.773Z,19.27
2019-01-24T13:33:35.003Z,17.73
2019-01-24T13:39:12.944Z,19.17
2019-01-24T13:41:42.493Z,18.23
2019-01-24T13:44:13.029Z,19.00
2019-01-24T13:46:42.527Z,17.17
2019-01-24T13:49:11.722Z,17.17
2019-01-24T13:51:40.926Z,19.33
2019-01-24T13:54:10.122Z,17.13
2019-01-24T13:56:39.322Z,19.43
2019-01-24T13:59:08.499Z,18.53
2019-01-24T14:01:37.708Z,18.77
2019-01-24T14:04:13.055Z,17.60
2019-01-24T14:06:42.255Z,19.40
2019-01-24T14:09:11.550Z,18.30
2019-01-24T14:11:59.747Z,18.07
2019-01-24T14:14:29.054Z,17.67
2019-01-24T14:16:58.256Z,19.07
2019-01-24T14:19:27.793Z,16.60
2019-01-24T14:21:57.011Z,17.37
2019-01-24T14:24:26.185Z,17.13
2019-01-24T14:26:55.362Z,16.93
2019-01-24T14:29:24.589Z,15.97
2019-01-24T14:31:54.090Z,17.17
2019-01-24T14:34:23.292Z,17.53
2019-01-24T14:36:52.646Z,16.90
2019-01-24T14:39:21.841Z,18.57
2019-01-24T14:41:51.394Z,17.53
2019-01-24T14:44:20.604Z,17.03
2019-01-24T14:46:49.774Z,18.13
2019-01-24T14:49:19.792Z,18.30
2019-01-24T14:51:49.874Z,17.43
2019-01-24T14:54:19.050Z,18.23
2019-01-24T14:56:48.248Z,19.10
2019-01-24T14:59:17.724Z,16.93
2019-01-24T15:01:46.923Z,17.20
2019-01-24T15:04:16.098Z,17.10
2019-01-24T15:06:45.303Z,17.23
2019-01-24T15:09:14.475Z,18.23
2019-01-24T15:11:43.671Z,17.10
2019-01-24T15:14:12.993Z,17.80
2019-01-24T15:16:42.231Z,18.23
2019-01-24T15:19:11.714Z,17.40
2019-01-24T15:21:41.215Z,17.20
2019-01-24T15:24:10.419Z,16.70
2019-01-24T15:26:39.605Z,16.50
2019-01-24T15:29:09.218Z,16.60
2019-01-24T15:31:38.401Z,17.43
2019-01-24T15:34:07.579Z,15.93
2019-01-24T15:36:36.782Z,15.57
2019-01-24T15:39:46.341Z,16.40
2019-01-24T15:42:15.861Z,16.23
2019-01-24T15:44:45.368Z,16.30
2019-01-24T15:47:14.581Z,16.80
2019-01-24T15:49:43.753Z,16.53
2019-01-24T15:55:01.115Z,17.20
2019-01-24T15:57:30.289Z,16.17
2019-01-24T15:59:59.499Z,15.97
2019-01-24T16:02:28.679Z,16.13
2019-01-24T16:04:57.851Z,17.27
2019-01-24T16:07:27.059Z,15.93
2019-01-24T16:09:56.243Z,16.07
2019-01-24T16:12:25.791Z,16.10
2019-01-24T16:14:54.967Z,16.47
2019-01-24T16:17:24.158Z,16.77
2019-01-24T16:19:53.351Z,16.77
2019-01-24T16:22:22.526Z,17.37
2019-01-24T16:24:51.731Z,18.23
2019-01-24T16:27:21.283Z,18.07
2019-01-24T16:29:50.516Z,17.17
2019-01-24T16:32:19.699Z,18.93
2019-01-24T16:34:49.178Z,19.27
2019-01-24T16:37:18.359Z,18.87
2019-01-24T16:39:47.571Z,18.63
2019-01-24T16:42:16.746Z,20.20
2019-01-24T16:44:45.923Z,19.50
2019-01-24T16:47:15.123Z,19.97
2019-01-24T16:49:44.317Z,20.00
2019-01-24T16:52:13.525Z,21.17
2019-01-24T16:54:42.698Z,22.10
2019-01-24T16:57:11.896Z,23.50
2019-01-24T16:59:41.067Z,23.43
2019-01-24T17:02:10.298Z,24.10
2019-01-24T17:04:39.445Z,25.03
2019-01-24T17:07:09.189Z,25.33
2019-01-24T17:09:38.834Z,26.93
2019-01-24T17:12:08.376Z,27.63
2019-01-24T17:14:37.555Z,26.37
2019-01-24T17:17:07.797Z,27.47
2019-01-24T17:19:55.993Z,27.03
2019-01-24T17:22:25.161Z,27.17
2019-01-24T17:24:54.360Z,27.70
2019-01-24T17:27:23.540Z,28.63
2019-01-24T17:29:53.103Z,28.67
2019-01-24T17:33:02.366Z,28.60
2019-01-24T17:35:31.563Z,29.70
2019-01-24T17:38:00.818Z,29.43
2019-01-24T17:40:49.099Z,28.33
2019-01-24T17:43:37.408Z,28.43
2019-01-24T17:46:06.618Z,26.83
2019-01-24T17:48:36.117Z,28.00
2019-01-24T17:51:06.616Z,28.70
2019-01-24T17:53:35.864Z,29.47
2019-01-24T17:56:05.243Z,29.73
2019-01-24T17:58:35.205Z,29.40
2019-01-24T18:01:04.525Z,30.43
2019-01-24T18:03:33.720Z,30.97
2019-01-24T18:06:02.902Z,30.97
2019-01-24T18:08:32.127Z,31.97
2019-01-24T18:11:01.300Z,44.23
2019-01-24T18:13:30.479Z,30.93
2019-01-24T18:15:59.995Z,30.80
2019-01-24T18:18:29.176Z,29.20
2019-01-24T18:21:37.925Z,29.27
2019-01-24T18:24:07.104Z,29.67
2019-01-24T18:26:36.656Z,28.43
2019-01-24T18:29:45.231Z,30.67
2019-01-24T18:32:14.850Z,28.70
2019-01-24T18:34:44.039Z,28.07
2019-01-24T18:37:13.245Z,29.50
2019-01-24T18:39:42.561Z,29.37
2019-01-24T18:42:31.231Z,28.23
2019-01-24T18:45:01.336Z,27.07
2019-01-24T18:47:30.512Z,28.40
2019-01-24T18:49:59.820Z,27.53
2019-01-24T18:52:29.003Z,27.20
2019-01-24T18:54:58.520Z,28.20
2019-01-24T18:57:27.714Z,26.00
2019-01-24T18:59:56.908Z,25.27
2019-01-24T19:02:26.419Z,26.70
2019-01-24T19:04:55.619Z,28.37
2019-01-24T19:07:24.798Z,28.03
2019-01-24T19:09:53.996Z,28.73
2019-01-24T19:12:23.184Z,27.73
2019-01-24T19:14:52.515Z,29.43
2019-01-24T19:17:21.702Z,25.70
2019-01-24T19:19:51.280Z,25.97
2019-01-24T19:22:20.736Z,27.37
2019-01-24T19:24:49.938Z,27.10
2019-01-24T19:27:19.116Z,24.87
2019-01-24T19:29:48.294Z,27.50
2019-01-24T19:32:17.812Z,27.70
2019-01-24T19:34:47.001Z,25.90
2019-01-24T19:37:16.515Z,25.93
2019-01-24T19:39:45.790Z,26.17
2019-01-24T19:42:15.320Z,25.50
2019-01-24T19:44:44.501Z,25.00
2019-01-24T19:47:13.699Z,25.57
2019-01-24T19:52:31.084Z,26.23
2019-01-24T19:55:00.253Z,26.80
2019-01-24T19:57:29.481Z,25.93
2019-01-24T19:59:58.681Z,26.57
2019-01-24T20:02:28.255Z,25.03
2019-01-24T20:04:57.758Z,25.63
2019-01-24T20:07:27.368Z,26.07
2019-01-24T20:09:56.569Z,25.67
2019-01-24T20:12:25.743Z,25.20
2019-01-24T20:14:54.942Z,25.70
2019-01-24T20:17:24.155Z,25.97
2019-01-24T20:19:53.319Z,27.27
2019-01-24T20:22:22.508Z,26.27
2019-01-24T20:24:51.952Z,27.77
2019-01-24T20:27:21.130Z,26.80
2019-01-24T20:29:50.337Z,27.70
2019-01-24T20:32:19.524Z,27.20
2019-01-24T20:34:48.727Z,26.53
2019-01-24T20:37:18.250Z,26.47
2019-01-24T20:39:48.408Z,27.60
2019-01-24T20:42:17.585Z,28.30
2019-01-24T20:44:47.256Z,25.93
2019-01-24T20:47:16.435Z,27.07
2019-01-24T20:49:45.651Z,26.03
2019-01-24T20:52:15.174Z,26.10
2019-01-24T20:54:44.379Z,26.73
2019-01-24T20:57:13.561Z,25.67
2019-01-24T20:59:42.789Z,25.23
2019-01-24T21:02:12.851Z,26.30
2019-01-24T21:04:42.036Z,28.17
2019-01-24T21:07:11.596Z,27.60
2019-01-24T21:09:40.776Z,24.93
2019-01-24T21:12:09.980Z,25.00
2019-01-24T21:14:39.598Z,24.73
2019-01-24T21:17:08.801Z,22.43
2019-01-24T21:19:38.099Z,23.33
2019-01-24T21:22:07.285Z,23.47
2019-01-24T21:24:36.518Z,20.37
2019-01-24T21:27:05.720Z,19.33
2019-01-24T21:29:34.946Z,19.97
2019-01-24T21:32:04.136Z,19.00
2019-01-24T21:34:33.472Z,19.63
2019-01-24T21:37:02.893Z,19.73
2019-01-24T21:39:32.097Z,20.53
2019-01-24T21:42:02.155Z,20.80
2019-01-24T21:44:31.363Z,20.60
2019-01-24T21:47:00.545Z,19.87
2019-01-24T21:49:29.734Z,20.30
2019-01-24T21:51:58.951Z,20.47
2019-01-24T21:54:28.615Z,21.57
2019-01-24T21:56:57.873Z,21.80
2019-01-24T21:59:27.608Z,20.83
2019-01-24T22:01:57.996Z,22.27
2019-01-24T22:04:27.319Z,24.03
2019-01-24T22:06:56.843Z,21.47
2019-01-24T22:09:29.287Z,19.73
2019-01-24T22:11:56.960Z,21.87
2019-01-24T22:14:26.497Z,23.77
2019-01-24T22:16:57.084Z,23.57
2019-01-24T22:19:26.300Z,23.87
2019-01-24T22:21:55.479Z,21.83
2019-01-24T22:24:24.658Z,23.57
2019-01-24T22:26:53.866Z,24.27
2019-01-24T22:29:23.053Z,25.03
2019-01-24T22:31:52.269Z,23.60
2019-01-24T22:34:21.804Z,21.70
2019-01-24T22:36:51.307Z,23.23
2019-01-24T22:39:20.521Z,22.53
2019-01-24T22:41:49.716Z,24.47
2019-01-24T22:44:19.206Z,22.63
2019-01-24T22:46:48.412Z,23.87
2019-01-24T22:49:17.605Z,22.80
2019-01-24T22:51:46.822Z,23.10
2019-01-24T22:54:15.999Z,24.07
2019-01-24T22:56:45.228Z,23.37
2019-01-24T22:59:14.406Z,21.33
2019-01-24T23:02:05.910Z,21.97
2019-01-24T23:04:35.097Z,23.03
2019-01-24T23:07:04.290Z,23.70
2019-01-24T23:09:33.496Z,23.40
2019-01-24T23:12:02.685Z,23.67
2019-01-24T23:14:31.894Z,24.43
2019-01-24T23:17:01.066Z,23.27
2019-01-24T23:19:30.271Z,23.40
2019-01-24T23:21:59.748Z,23.53
2019-01-24T23:24:29.307Z,24.40
2019-01-24T23:26:58.508Z,24.40
2019-01-24T23:29:27.693Z,22.57
2019-01-24T23:31:56.915Z,23.40
2019-01-24T23:34:26.102Z,21.73
2019-01-24T23:36:55.312Z,22.77
2019-01-24T23:39:24.500Z,22.70
2019-01-24T23:41:53.677Z,22.70
2019-01-24T23:44:22.896Z,21.93
2019-01-24T23:46:52.104Z,20.50
2019-01-24T23:49:21.303Z,21.23
2019-01-24T23:51:50.482Z,23.43
2019-01-24T23:54:19.693Z,20.90
2019-01-24T23:56:48.866Z,20.23
2019-01-24T23:59:18.064Z,21.53
